sensor_id;sensor_type;location;lat;lon;timestamp;P1;durP1;ratioP1;P2;durP2;ratioP2
23072;SDS011;34865;51.046;3.732;2022-12-20T00:01:08;8.47;;;4.43;;
23072;SDS011;34865;51.046;3.732;2022-12-20T00:03:35;9.20;;;4.30;;
23072;SDS011;34865;51.046;3.732;2022-12-20T00:06:01;9.90;;;5.07;;
23072;SDS011;34865;51.046;3.732;2022-12-20T00:08:30;10.00;;;5.80;;
23072;SDS011;34865;51.046;3.732;2022-12-20T00:10:58;9.07;;;4.50;;
23072;SDS011;34865;51.046;3.732;2022-12-20T00:13:25;8.03;;;4.83;;
23072;SDS011;34865;51.046;3.732;2022-12-20T00:15:50;10.80;;;4.80;;
23072;SDS011;34865;51.046;3.732;2022-12-20T00:18:31;9.43;;;5.00;;
23072;SDS011;34865;51.046;3.732;2022-12-20T00:20:57;8.40;;;5.17;;
23072;SDS011;34865;51.046;3.732;2022-12-20T00:23:23;7.10;;;4.63;;
23072;SDS011;34865;51.046;3.732;2022-12-20T00:25:49;11.80;;;5.20;;
23072;SDS011;34865;51.046;3.732;2022-12-20T00:28:15;11.67;;;5.20;;
23072;SDS011;34865;51.046;3.732;2022-12-20T00:30:40;7.27;;;5.00;;
23072;SDS011;34865;51.046;3.732;2022-12-20T00:33:06;8.23;;;4.90;;
23072;SDS011;34865;51.046;3.732;2022-12-20T00:35:32;9.03;;;5.93;;
23072;SDS011;34865;51.046;3.732;2022-12-20T00:37:57;8.13;;;5.57;;
23072;SDS011;34865;51.046;3.732;2022-12-20T00:40:23;10.13;;;5.00;;
23072;SDS011;34865;51.046;3.732;2022-12-20T00:42:49;10.80;;;5.70;;
23072;SDS011;34865;51.046;3.732;2022-12-20T00:45:14;12.27;;;5.17;;
23072;SDS011;34865;51.046;3.732;2022-12-20T00:47:40;10.13;;;5.60;;
23072;SDS011;34865;51.046;3.732;2022-12-20T00:50:06;9.47;;;5.40;;
23072;SDS011;34865;51.046;3.732;2022-12-20T00:52:32;10.53;;;5.90;;
23072;SDS011;34865;51.046;3.732;2022-12-20T00:54:57;11.40;;;5.13;;
23072;SDS011;34865;51.046;3.732;2022-12-20T00:57:23;8.27;;;5.57;;
23072;SDS011;34865;51.046;3.732;2022-12-20T00:59:49;8.47;;;5.10;;
23072;SDS011;34865;51.046;3.732;2022-12-20T01:02:14;10.90;;;5.47;;
23072;SDS011;34865;51.046;3.732;2022-12-20T01:04:40;12.87;;;6.23;;
23072;SDS011;34865;51.046;3.732;2022-12-20T01:07:06;8.80;;;5.13;;
23072;SDS011;34865;51.046;3.732;2022-12-20T01:09:35;9.50;;;5.40;;
23072;SDS011;34865;51.046;3.732;2022-12-20T01:12:01;11.13;;;5.83;;
23072;SDS011;34865;51.046;3.732;2022-12-20T01:14:26;7.70;;;5.30;;
23072;SDS011;34865;51.046;3.732;2022-12-20T01:16:52;10.10;;;5.93;;
23072;SDS011;34865;51.046;3.732;2022-12-20T01:19:17;8.37;;;5.97;;
23072;SDS011;34865;51.046;3.732;2022-12-20T01:21:43;10.60;;;5.77;;
23072;SDS011;34865;51.046;3.732;2022-12-20T01:24:10;9.80;;;5.43;;
23072;SDS011;34865;51.046;3.732;2022-12-20T01:26:36;10.60;;;5.80;;
23072;SDS011;34865;51.046;3.732;2022-12-20T01:29:02;11.83;;;5.03;;
23072;SDS011;34865;51.046;3.732;2022-12-20T01:31:28;13.00;;;5.93;;
23072;SDS011;34865;51.046;3.732;2022-12-20T01:33:54;10.17;;;4.83;;
23072;SDS011;34865;51.046;3.732;2022-12-20T01:36:21;9.20;;;5.23;;
23072;SDS011;34865;51.046;3.732;2022-12-20T01:38:49;11.40;;;5.10;;
23072;SDS011;34865;51.046;3.732;2022-12-20T01:41:19;10.33;;;4.90;;
23072;SDS011;34865;51.046;3.732;2022-12-20T01:46:20;10.83;;;5.07;;
23072;SDS011;34865;51.046;3.732;2022-12-20T01:48:50;9.27;;;4.50;;
23072;SDS011;34865;51.046;3.732;2022-12-20T01:51:22;11.23;;;5.07;;
23072;SDS011;34865;51.046;3.732;2022-12-20T01:53:51;9.43;;;4.57;;
23072;SDS011;34865;51.046;3.732;2022-12-20T01:56:22;9.30;;;4.43;;
23072;SDS011;34865;51.046;3.732;2022-12-20T01:58:48;8.33;;;4.43;;
23072;SDS011;34865;51.046;3.732;2022-12-20T02:01:17;8.47;;;4.57;;
23072;SDS011;34865;51.046;3.732;2022-12-20T02:03:42;13.87;;;4.53;;
23072;SDS011;34865;51.046;3.732;2022-12-20T02:06:17;9.73;;;4.50;;
23072;SDS011;34865;51.046;3.732;2022-12-20T02:08:44;8.17;;;4.30;;
23072;SDS011;34865;51.046;3.732;2022-12-20T02:11:31;10.30;;;4.60;;
23072;SDS011;34865;51.046;3.732;2022-12-20T02:16:53;7.80;;;4.17;;
23072;SDS011;34865;51.046;3.732;2022-12-20T02:22:22;8.87;;;4.27;;
23072;SDS011;34865;51.046;3.732;2022-12-20T02:30:20;8.73;;;3.93;;
23072;SDS011;34865;51.046;3.732;2022-12-20T02:32:56;7.20;;;4.40;;
23072;SDS011;34865;51.046;3.732;2022-12-20T02:35:32;6.40;;;4.10;;
23072;SDS011;34865;51.046;3.732;2022-12-20T02:38:00;6.03;;;3.70;;
23072;SDS011;34865;51.046;3.732;2022-12-20T02:40:31;11.47;;;4.40;;
23072;SDS011;34865;51.046;3.732;2022-12-20T02:43:03;6.03;;;4.07;;
23072;SDS011;34865;51.046;3.732;2022-12-20T02:45:50;8.10;;;4.20;;
23072;SDS011;34865;51.046;3.732;2022-12-20T02:48:18;7.33;;;4.27;;
23072;SDS011;34865;51.046;3.732;2022-12-20T02:50:45;7.03;;;4.10;;
23072;SDS011;34865;51.046;3.732;2022-12-20T02:53:14;5.83;;;4.90;;
23072;SDS011;34865;51.046;3.732;2022-12-20T02:58:37;7.37;;;3.93;;
23072;SDS011;34865;51.046;3.732;2022-12-20T03:01:14;8.13;;;3.80;;
23072;SDS011;34865;51.046;3.732;2022-12-20T03:03:53;9.30;;;4.43;;
23072;SDS011;34865;51.046;3.732;2022-12-20T03:06:20;7.63;;;4.47;;
23072;SDS011;34865;51.046;3.732;2022-12-20T03:08:46;9.40;;;4.50;;
23072;SDS011;34865;51.046;3.732;2022-12-20T03:11:12;7.23;;;4.40;;
23072;SDS011;34865;51.046;3.732;2022-12-20T03:13:38;10.83;;;4.57;;
23072;SDS011;34865;51.046;3.732;2022-12-20T03:16:04;4.90;;;4.10;;
23072;SDS011;34865;51.046;3.732;2022-12-20T03:18:30;11.93;;;5.10;;
23072;SDS011;34865;51.046;3.732;2022-12-20T03:20:56;9.20;;;5.07;;
23072;SDS011;34865;51.046;3.732;2022-12-20T03:23:22;8.97;;;4.70;;
23072;SDS011;34865;51.046;3.732;2022-12-20T03:25:47;6.10;;;4.37;;
23072;SDS011;34865;51.046;3.732;2022-12-20T03:28:13;7.27;;;4.30;;
23072;SDS011;34865;51.046;3.732;2022-12-20T03:30:39;8.13;;;4.20;;
23072;SDS011;34865;51.046;3.732;2022-12-20T03:33:04;8.90;;;4.50;;
23072;SDS011;34865;51.046;3.732;2022-12-20T03:35:30;6.33;;;4.57;;
23072;SDS011;34865;51.046;3.732;2022-12-20T03:37:56;7.53;;;4.63;;
23072;SDS011;34865;51.046;3.732;2022-12-20T03:40:21;8.83;;;4.23;;
23072;SDS011;34865;51.046;3.732;2022-12-20T03:42:47;6.13;;;4.10;;
23072;SDS011;34865;51.046;3.732;2022-12-20T03:45:13;7.43;;;4.40;;
23072;SDS011;34865;51.046;3.732;2022-12-20T03:47:39;10.37;;;4.00;;
23072;SDS011;34865;51.046;3.732;2022-12-20T03:50:05;8.73;;;4.40;;
23072;SDS011;34865;51.046;3.732;2022-12-20T03:52:32;7.17;;;4.23;;
23072;SDS011;34865;51.046;3.732;2022-12-20T03:54:58;6.83;;;3.70;;
23072;SDS011;34865;51.046;3.732;2022-12-20T03:57:23;9.87;;;4.40;;
23072;SDS011;34865;51.046;3.732;2022-12-20T03:59:49;7.70;;;3.50;;
23072;SDS011;34865;51.046;3.732;2022-12-20T04:02:15;5.37;;;3.80;;
23072;SDS011;34865;51.046;3.732;2022-12-20T04:04:40;8.23;;;3.80;;
23072;SDS011;34865;51.046;3.732;2022-12-20T04:07:06;8.77;;;3.57;;
23072;SDS011;34865;51.046;3.732;2022-12-20T04:09:32;11.13;;;4.00;;
23072;SDS011;34865;51.046;3.732;2022-12-20T04:11:58;9.17;;;4.13;;
23072;SDS011;34865;51.046;3.732;2022-12-20T04:14:25;6.17;;;3.83;;
23072;SDS011;34865;51.046;3.732;2022-12-20T04:16:50;8.50;;;3.80;;
23072;SDS011;34865;51.046;3.732;2022-12-20T04:19:16;5.33;;;3.23;;
23072;SDS011;34865;51.046;3.732;2022-12-20T04:21:41;6.00;;;3.50;;
23072;SDS011;34865;51.046;3.732;2022-12-20T04:24:07;5.27;;;3.43;;
23072;SDS011;34865;51.046;3.732;2022-12-20T04:26:34;7.17;;;3.00;;
23072;SDS011;34865;51.046;3.732;2022-12-20T04:29:00;9.37;;;4.17;;
23072;SDS011;34865;51.046;3.732;2022-12-20T04:31:25;7.40;;;3.53;;
23072;SDS011;34865;51.046;3.732;2022-12-20T04:33:51;6.50;;;3.47;;
23072;SDS011;34865;51.046;3.732;2022-12-20T04:36:17;7.20;;;3.80;;
23072;SDS011;34865;51.046;3.732;2022-12-20T04:38:43;7.60;;;3.80;;
23072;SDS011;34865;51.046;3.732;2022-12-20T04:41:08;7.00;;;3.20;;
23072;SDS011;34865;51.046;3.732;2022-12-20T04:43:34;6.67;;;3.67;;
23072;SDS011;34865;51.046;3.732;2022-12-20T04:46:00;8.37;;;3.63;;
23072;SDS011;34865;51.046;3.732;2022-12-20T04:48:26;6.60;;;3.50;;
23072;SDS011;34865;51.046;3.732;2022-12-20T04:50:53;11.77;;;4.43;;
23072;SDS011;34865;51.046;3.732;2022-12-20T04:53:19;10.53;;;3.20;;
23072;SDS011;34865;51.046;3.732;2022-12-20T04:56:04;10.77;;;4.40;;
23072;SDS011;34865;51.046;3.732;2022-12-20T04:58:30;8.60;;;4.43;;
23072;SDS011;34865;51.046;3.732;2022-12-20T05:00:56;12.63;;;3.73;;
23072;SDS011;34865;51.046;3.732;2022-12-20T05:03:22;5.43;;;3.07;;
23072;SDS011;34865;51.046;3.732;2022-12-20T05:05:49;8.03;;;3.47;;
23072;SDS011;34865;51.046;3.732;2022-12-20T05:08:14;5.03;;;3.40;;
23072;SDS011;34865;51.046;3.732;2022-12-20T05:10:40;8.10;;;3.57;;
23072;SDS011;34865;51.046;3.732;2022-12-20T05:13:06;6.60;;;3.47;;
23072;SDS011;34865;51.046;3.732;2022-12-20T05:15:32;9.20;;;3.27;;
23072;SDS011;34865;51.046;3.732;2022-12-20T05:17:58;6.13;;;3.30;;
23072;SDS011;34865;51.046;3.732;2022-12-20T05:20:28;7.87;;;2.97;;
23072;SDS011;34865;51.046;3.732;2022-12-20T05:22:55;7.60;;;3.20;;
23072;SDS011;34865;51.046;3.732;2022-12-20T05:25:49;8.07;;;2.97;;
23072;SDS011;34865;51.046;3.732;2022-12-20T05:28:34;6.13;;;3.17;;
23072;SDS011;34865;51.046;3.732;2022-12-20T05:31:00;7.13;;;3.37;;
23072;SDS011;34865;51.046;3.732;2022-12-20T05:33:26;6.90;;;2.90;;
23072;SDS011;34865;51.046;3.732;2022-12-20T05:35:52;8.97;;;3.30;;
23072;SDS011;34865;51.046;3.732;2022-12-20T05:38:18;5.43;;;2.70;;
23072;SDS011;34865;51.046;3.732;2022-12-20T05:40:45;5.80;;;2.83;;
23072;SDS011;34865;51.046;3.732;2022-12-20T05:43:12;7.83;;;3.17;;
23072;SDS011;34865;51.046;3.732;2022-12-20T05:45:39;7.77;;;2.90;;
23072;SDS011;34865;51.046;3.732;2022-12-20T05:48:05;10.53;;;2.97;;
23072;SDS011;34865;51.046;3.732;2022-12-20T05:50:30;7.03;;;2.93;;
23072;SDS011;34865;51.046;3.732;2022-12-20T05:52:56;6.20;;;3.60;;
23072;SDS011;34865;51.046;3.732;2022-12-20T05:55:22;5.00;;;2.47;;
23072;SDS011;34865;51.046;3.732;2022-12-20T05:57:47;7.53;;;2.60;;
23072;SDS011;34865;51.046;3.732;2022-12-20T06:00:13;5.37;;;2.70;;
23072;SDS011;34865;51.046;3.732;2022-12-20T06:02:39;5.67;;;2.77;;
23072;SDS011;34865;51.046;3.732;2022-12-20T06:05:05;5.23;;;2.63;;
23072;SDS011;34865;51.046;3.732;2022-12-20T06:07:31;5.30;;;2.63;;
23072;SDS011;34865;51.046;3.732;2022-12-20T06:09:57;6.93;;;2.83;;
23072;SDS011;34865;51.046;3.732;2022-12-20T06:12:22;6.20;;;2.57;;
23072;SDS011;34865;51.046;3.732;2022-12-20T06:14:48;8.93;;;2.63;;
23072;SDS011;34865;51.046;3.732;2022-12-20T06:17:15;7.13;;;2.80;;
23072;SDS011;34865;51.046;3.732;2022-12-20T06:19:41;5.83;;;2.40;;
23072;SDS011;34865;51.046;3.732;2022-12-20T06:22:07;9.17;;;2.70;;
23072;SDS011;34865;51.046;3.732;2022-12-20T06:24:34;6.73;;;2.83;;
23072;SDS011;34865;51.046;3.732;2022-12-20T06:27:00;3.13;;;2.30;;
23072;SDS011;34865;51.046;3.732;2022-12-20T06:29:27;6.33;;;2.57;;
23072;SDS011;34865;51.046;3.732;2022-12-20T06:31:53;5.67;;;2.80;;
23072;SDS011;34865;51.046;3.732;2022-12-20T06:34:20;6.13;;;2.60;;
23072;SDS011;34865;51.046;3.732;2022-12-20T06:36:45;7.37;;;2.90;;
23072;SDS011;34865;51.046;3.732;2022-12-20T06:39:11;7.73;;;3.37;;
23072;SDS011;34865;51.046;3.732;2022-12-20T06:41:38;6.00;;;2.60;;
23072;SDS011;34865;51.046;3.732;2022-12-20T06:44:04;4.73;;;2.77;;
23072;SDS011;34865;51.046;3.732;2022-12-20T06:46:30;9.73;;;2.90;;
23072;SDS011;34865;51.046;3.732;2022-12-20T06:48:56;3.73;;;3.03;;
23072;SDS011;34865;51.046;3.732;2022-12-20T06:51:21;6.10;;;2.83;;
23072;SDS011;34865;51.046;3.732;2022-12-20T06:53:47;7.47;;;2.37;;
23072;SDS011;34865;51.046;3.732;2022-12-20T06:56:13;4.77;;;2.43;;
23072;SDS011;34865;51.046;3.732;2022-12-20T06:58:39;6.50;;;2.73;;
23072;SDS011;34865;51.046;3.732;2022-12-20T07:01:04;6.73;;;3.00;;
23072;SDS011;34865;51.046;3.732;2022-12-20T07:03:30;5.80;;;2.97;;
23072;SDS011;34865;51.046;3.732;2022-12-20T07:05:56;10.83;;;3.13;;
23072;SDS011;34865;51.046;3.732;2022-12-20T07:08:22;7.13;;;3.00;;
23072;SDS011;34865;51.046;3.732;2022-12-20T07:10:48;7.90;;;4.17;;
23072;SDS011;34865;51.046;3.732;2022-12-20T07:13:16;8.93;;;2.93;;
23072;SDS011;34865;51.046;3.732;2022-12-20T07:15:42;8.43;;;2.90;;
23072;SDS011;34865;51.046;3.732;2022-12-20T07:18:08;5.60;;;3.40;;
23072;SDS011;34865;51.046;3.732;2022-12-20T07:20:34;7.33;;;2.90;;
23072;SDS011;34865;51.046;3.732;2022-12-20T07:23:00;8.70;;;3.13;;
23072;SDS011;34865;51.046;3.732;2022-12-20T07:25:26;10.70;;;3.00;;
23072;SDS011;34865;51.046;3.732;2022-12-20T07:27:52;7.33;;;3.20;;
23072;SDS011;34865;51.046;3.732;2022-12-20T07:30:18;9.17;;;3.70;;
23072;SDS011;34865;51.046;3.732;2022-12-20T07:32:45;7.40;;;3.60;;
23072;SDS011;34865;51.046;3.732;2022-12-20T07:35:20;12.20;;;4.43;;
23072;SDS011;34865;51.046;3.732;2022-12-20T07:37:45;9.40;;;3.60;;
23072;SDS011;34865;51.046;3.732;2022-12-20T07:40:11;11.43;;;3.47;;
23072;SDS011;34865;51.046;3.732;2022-12-20T07:42:38;12.67;;;3.90;;
23072;SDS011;34865;51.046;3.732;2022-12-20T07:45:04;11.00;;;3.37;;
23072;SDS011;34865;51.046;3.732;2022-12-20T07:47:30;14.50;;;3.60;;
23072;SDS011;34865;51.046;3.732;2022-12-20T07:50:01;8.53;;;3.67;;
23072;SDS011;34865;51.046;3.732;2022-12-20T07:52:27;16.43;;;3.47;;
23072;SDS011;34865;51.046;3.732;2022-12-20T07:54:55;8.90;;;3.87;;
23072;SDS011;34865;51.046;3.732;2022-12-20T07:57:33;13.70;;;3.97;;
23072;SDS011;34865;51.046;3.732;2022-12-20T08:00:03;13.63;;;3.97;;
23072;SDS011;34865;51.046;3.732;2022-12-20T08:02:34;11.10;;;4.20;;
23072;SDS011;34865;51.046;3.732;2022-12-20T08:05:02;14.67;;;4.33;;
23072;SDS011;34865;51.046;3.732;2022-12-20T08:07:31;10.90;;;3.83;;
23072;SDS011;34865;51.046;3.732;2022-12-20T08:09:58;11.90;;;4.20;;
23072;SDS011;34865;51.046;3.732;2022-12-20T08:12:25;8.20;;;3.73;;
23072;SDS011;34865;51.046;3.732;2022-12-20T08:14:53;9.73;;;3.50;;
23072;SDS011;34865;51.046;3.732;2022-12-20T08:17:20;11.80;;;3.40;;
23072;SDS011;34865;51.046;3.732;2022-12-20T08:19:46;11.47;;;4.17;;
23072;SDS011;34865;51.046;3.732;2022-12-20T08:22:15;9.63;;;3.80;;
23072;SDS011;34865;51.046;3.732;2022-12-20T08:24:41;11.77;;;4.30;;
23072;SDS011;34865;51.046;3.732;2022-12-20T08:27:07;9.50;;;4.53;;
23072;SDS011;34865;51.046;3.732;2022-12-20T08:29:33;11.37;;;4.00;;
23072;SDS011;34865;51.046;3.732;2022-12-20T08:31:59;12.10;;;4.57;;
23072;SDS011;34865;51.046;3.732;2022-12-20T08:34:25;11.10;;;4.70;;
23072;SDS011;34865;51.046;3.732;2022-12-20T08:36:51;9.43;;;4.07;;
23072;SDS011;34865;51.046;3.732;2022-12-20T08:39:16;15.23;;;4.97;;
23072;SDS011;34865;51.046;3.732;2022-12-20T08:41:42;12.90;;;4.80;;
23072;SDS011;34865;51.046;3.732;2022-12-20T08:44:08;9.60;;;4.03;;
23072;SDS011;34865;51.046;3.732;2022-12-20T08:46:34;6.83;;;3.53;;
23072;SDS011;34865;51.046;3.732;2022-12-20T08:49:01;12.93;;;3.87;;
23072;SDS011;34865;51.046;3.732;2022-12-20T08:51:30;12.10;;;3.47;;
23072;SDS011;34865;51.046;3.732;2022-12-20T08:53:55;9.10;;;4.83;;
23072;SDS011;34865;51.046;3.732;2022-12-20T08:56:21;11.37;;;3.70;;
23072;SDS011;34865;51.046;3.732;2022-12-20T08:58:47;10.83;;;4.07;;
23072;SDS011;34865;51.046;3.732;2022-12-20T09:01:14;10.00;;;3.60;;
23072;SDS011;34865;51.046;3.732;2022-12-20T09:03:45;9.47;;;3.50;;
23072;SDS011;34865;51.046;3.732;2022-12-20T09:06:15;11.73;;;4.63;;
23072;SDS011;34865;51.046;3.732;2022-12-20T09:08:42;8.07;;;3.53;;
23072;SDS011;34865;51.046;3.732;2022-12-20T09:11:12;9.20;;;3.83;;
23072;SDS011;34865;51.046;3.732;2022-12-20T09:13:47;15.60;;;4.80;;
23072;SDS011;34865;51.046;3.732;2022-12-20T09:16:18;8.53;;;3.97;;
23072;SDS011;34865;51.046;3.732;2022-12-20T09:18:50;9.43;;;4.30;;
23072;SDS011;34865;51.046;3.732;2022-12-20T09:21:17;10.33;;;4.00;;
23072;SDS011;34865;51.046;3.732;2022-12-20T09:23:44;12.23;;;4.60;;
23072;SDS011;34865;51.046;3.732;2022-12-20T09:26:10;10.20;;;3.77;;
23072;SDS011;34865;51.046;3.732;2022-12-20T09:28:44;5.90;;;3.80;;
23072;SDS011;34865;51.046;3.732;2022-12-20T09:31:13;9.30;;;4.07;;
23072;SDS011;34865;51.046;3.732;2022-12-20T09:33:41;15.77;;;5.70;;
23072;SDS011;34865;51.046;3.732;2022-12-20T09:36:11;13.20;;;4.50;;
23072;SDS011;34865;51.046;3.732;2022-12-20T09:38:40;11.73;;;3.80;;
23072;SDS011;34865;51.046;3.732;2022-12-20T09:41:15;8.97;;;4.37;;
23072;SDS011;34865;51.046;3.732;2022-12-20T09:43:49;15.77;;;5.50;;
23072;SDS011;34865;51.046;3.732;2022-12-20T09:46:25;9.30;;;4.60;;
23072;SDS011;34865;51.046;3.732;2022-12-20T09:48:51;8.10;;;4.33;;
23072;SDS011;34865;51.046;3.732;2022-12-20T09:51:21;17.60;;;4.87;;
23072;SDS011;34865;51.046;3.732;2022-12-20T09:56:43;15.23;;;5.40;;
23072;SDS011;34865;51.046;3.732;2022-12-20T09:59:22;10.03;;;5.07;;
23072;SDS011;34865;51.046;3.732;2022-12-20T10:01:48;15.17;;;5.80;;
23072;SDS011;34865;51.046;3.732;2022-12-20T10:04:19;12.30;;;6.17;;
23072;SDS011;34865;51.046;3.732;2022-12-20T10:17:45;13.90;;;5.60;;
23072;SDS011;34865;51.046;3.732;2022-12-20T10:20:37;13.80;;;5.03;;
23072;SDS011;34865;51.046;3.732;2022-12-20T10:23:22;19.90;;;5.27;;
23072;SDS011;34865;51.046;3.732;2022-12-20T10:26:09;13.13;;;5.03;;
23072;SDS011;34865;51.046;3.732;2022-12-20T10:28:39;18.47;;;5.97;;
23072;SDS011;34865;51.046;3.732;2022-12-20T10:31:14;18.07;;;8.07;;
23072;SDS011;34865;51.046;3.732;2022-12-20T10:33:41;16.53;;;6.30;;
23072;SDS011;34865;51.046;3.732;2022-12-20T10:36:27;16.23;;;5.63;;
23072;SDS011;34865;51.046;3.732;2022-12-20T10:39:07;21.63;;;6.70;;
23072;SDS011;34865;51.046;3.732;2022-12-20T10:44:22;17.13;;;6.47;;
23072;SDS011;34865;51.046;3.732;2022-12-20T10:47:19;15.40;;;6.40;;
23072;SDS011;34865;51.046;3.732;2022-12-20T10:49:58;10.50;;;6.10;;
23072;SDS011;34865;51.046;3.732;2022-12-20T10:52:41;11.20;;;5.77;;
23072;SDS011;34865;51.046;3.732;2022-12-20T11:01:18;11.33;;;6.63;;
23072;SDS011;34865;51.046;3.732;2022-12-20T11:06:21;12.20;;;6.13;;
23072;SDS011;34865;51.046;3.732;2022-12-20T11:08:49;12.73;;;7.23;;
23072;SDS011;34865;51.046;3.732;2022-12-20T11:11:17;13.63;;;6.40;;
23072;SDS011;34865;51.046;3.732;2022-12-20T11:13:46;16.33;;;7.60;;
23072;SDS011;34865;51.046;3.732;2022-12-20T11:16:22;13.57;;;6.33;;
23072;SDS011;34865;51.046;3.732;2022-12-20T11:18:53;17.13;;;7.83;;
23072;SDS011;34865;51.046;3.732;2022-12-20T11:21:40;18.07;;;8.07;;
23072;SDS011;34865;51.046;3.732;2022-12-20T11:24:09;13.70;;;7.13;;
23072;SDS011;34865;51.046;3.732;2022-12-20T11:27:06;17.57;;;8.30;;
23072;SDS011;34865;51.046;3.732;2022-12-20T11:40:41;17.60;;;8.27;;
23072;SDS011;34865;51.046;3.732;2022-12-20T11:54:13;12.20;;;7.80;;
23072;SDS011;34865;51.046;3.732;2022-12-20T11:56:52;16.70;;;7.93;;
23072;SDS011;34865;51.046;3.732;2022-12-20T12:02:26;12.20;;;8.13;;
23072;SDS011;34865;51.046;3.732;2022-12-20T12:05:18;17.07;;;9.13;;
23072;SDS011;34865;51.046;3.732;2022-12-20T12:07:53;15.10;;;8.77;;
23072;SDS011;34865;51.046;3.732;2022-12-20T12:10:55;19.43;;;9.07;;
23072;SDS011;34865;51.046;3.732;2022-12-20T12:13:27;15.13;;;8.50;;
23072;SDS011;34865;51.046;3.732;2022-12-20T12:16:00;14.20;;;8.57;;
23072;SDS011;34865;51.046;3.732;2022-12-20T12:18:49;17.10;;;8.10;;
23072;SDS011;34865;51.046;3.732;2022-12-20T12:21:18;19.80;;;8.67;;
23072;SDS011;34865;51.046;3.732;2022-12-20T12:26:31;18.30;;;8.60;;
23072;SDS011;34865;51.046;3.732;2022-12-20T12:29:20;21.30;;;8.43;;
23072;SDS011;34865;51.046;3.732;2022-12-20T12:31:59;17.73;;;8.50;;
23072;SDS011;34865;51.046;3.732;2022-12-20T12:37:35;11.63;;;8.10;;
23072;SDS011;34865;51.046;3.732;2022-12-20T12:43:04;15.37;;;8.07;;
23072;SDS011;34865;51.046;3.732;2022-12-20T12:46:03;21.30;;;9.57;;
23072;SDS011;34865;51.046;3.732;2022-12-20T12:48:38;15.97;;;9.30;;
23072;SDS011;34865;51.046;3.732;2022-12-20T12:51:04;16.23;;;9.40;;
23072;SDS011;34865;51.046;3.732;2022-12-20T12:53:41;17.27;;;8.77;;
23072;SDS011;34865;51.046;3.732;2022-12-20T13:04:25;16.50;;;8.67;;
23072;SDS011;34865;51.046;3.732;2022-12-20T13:07:28;18.17;;;8.53;;
23072;SDS011;34865;51.046;3.732;2022-12-20T13:09:50;21.93;;;8.43;;
23072;SDS011;34865;51.046;3.732;2022-12-20T13:15:00;13.13;;;8.73;;
23072;SDS011;34865;51.046;3.732;2022-12-20T13:20:19;15.23;;;7.63;;
23072;SDS011;34865;51.046;3.732;2022-12-20T13:25:37;15.07;;;9.10;;
23072;SDS011;34865;51.046;3.732;2022-12-20T13:30:40;13.63;;;8.60;;
23072;SDS011;34865;51.046;3.732;2022-12-20T13:33:23;13.60;;;8.37;;
23072;SDS011;34865;51.046;3.732;2022-12-20T13:36:03;15.70;;;9.60;;
23072;SDS011;34865;51.046;3.732;2022-12-20T13:44:16;16.00;;;8.23;;
23072;SDS011;34865;51.046;3.732;2022-12-20T13:47:00;25.03;;;11.40;;
23072;SDS011;34865;51.046;3.732;2022-12-20T13:49:35;14.30;;;9.63;;
23072;SDS011;34865;51.046;3.732;2022-12-20T13:52:23;18.10;;;9.63;;
23072;SDS011;34865;51.046;3.732;2022-12-20T13:55:00;17.47;;;9.03;;
23072;SDS011;34865;51.046;3.732;2022-12-20T13:57:42;17.37;;;9.40;;
23072;SDS011;34865;51.046;3.732;2022-12-20T14:00:23;13.70;;;8.90;;
23072;SDS011;34865;51.046;3.732;2022-12-20T14:02:51;13.37;;;8.87;;
23072;SDS011;34865;51.046;3.732;2022-12-20T14:05:19;17.07;;;9.40;;
23072;SDS011;34865;51.046;3.732;2022-12-20T14:08:12;19.70;;;9.63;;
23072;SDS011;34865;51.046;3.732;2022-12-20T14:10:43;13.13;;;9.80;;
23072;SDS011;34865;51.046;3.732;2022-12-20T14:13:19;14.67;;;8.73;;
23072;SDS011;34865;51.046;3.732;2022-12-20T14:15:50;17.00;;;10.90;;
23072;SDS011;34865;51.046;3.732;2022-12-20T14:18:21;17.17;;;10.07;;
23072;SDS011;34865;51.046;3.732;2022-12-20T14:20:57;17.77;;;10.47;;
23072;SDS011;34865;51.046;3.732;2022-12-20T14:23:26;21.97;;;10.47;;
23072;SDS011;34865;51.046;3.732;2022-12-20T14:26:04;19.53;;;9.67;;
23072;SDS011;34865;51.046;3.732;2022-12-20T14:28:36;26.17;;;12.17;;
23072;SDS011;34865;51.046;3.732;2022-12-20T14:36:37;28.53;;;11.37;;
23072;SDS011;34865;51.046;3.732;2022-12-20T14:39:24;22.63;;;13.37;;
23072;SDS011;34865;51.046;3.732;2022-12-20T14:41:56;23.30;;;10.80;;
23072;SDS011;34865;51.046;3.732;2022-12-20T14:44:27;23.53;;;12.83;;
23072;SDS011;34865;51.046;3.732;2022-12-20T14:46:56;26.80;;;12.30;;
23072;SDS011;34865;51.046;3.732;2022-12-20T14:49:26;24.73;;;12.43;;
23072;SDS011;34865;51.046;3.732;2022-12-20T14:52:32;20.80;;;11.90;;
23072;SDS011;34865;51.046;3.732;2022-12-20T14:55:26;23.70;;;12.80;;
23072;SDS011;34865;51.046;3.732;2022-12-20T14:58:21;21.53;;;12.80;;
23072;SDS011;34865;51.046;3.732;2022-12-20T15:01:20;22.90;;;13.50;;
23072;SDS011;34865;51.046;3.732;2022-12-20T15:03:55;22.17;;;12.77;;
23072;SDS011;34865;51.046;3.732;2022-12-20T15:09:12;27.33;;;15.00;;
23072;SDS011;34865;51.046;3.732;2022-12-20T15:11:44;24.33;;;15.20;;
23072;SDS011;34865;51.046;3.732;2022-12-20T15:14:24;30.07;;;15.03;;
23072;SDS011;34865;51.046;3.732;2022-12-20T15:16:53;22.70;;;15.47;;
23072;SDS011;34865;51.046;3.732;2022-12-20T15:19:20;29.40;;;15.17;;
23072;SDS011;34865;51.046;3.732;2022-12-20T15:21:46;24.13;;;15.07;;
23072;SDS011;34865;51.046;3.732;2022-12-20T15:24:13;30.57;;;15.77;;
23072;SDS011;34865;51.046;3.732;2022-12-20T15:26:40;27.80;;;16.20;;
23072;SDS011;34865;51.046;3.732;2022-12-20T15:29:17;24.87;;;17.30;;
23072;SDS011;34865;51.046;3.732;2022-12-20T15:31:45;22.83;;;15.77;;
23072;SDS011;34865;51.046;3.732;2022-12-20T15:34:17;28.47;;;16.87;;
23072;SDS011;34865;51.046;3.732;2022-12-20T15:36:55;29.23;;;16.37;;
23072;SDS011;34865;51.046;3.732;2022-12-20T15:39:23;28.47;;;16.53;;
23072;SDS011;34865;51.046;3.732;2022-12-20T15:41:50;33.53;;;16.23;;
23072;SDS011;34865;51.046;3.732;2022-12-20T15:44:20;25.77;;;15.87;;
23072;SDS011;34865;51.046;3.732;2022-12-20T15:46:48;40.90;;;15.97;;
23072;SDS011;34865;51.046;3.732;2022-12-20T15:49:16;30.13;;;16.40;;
23072;SDS011;34865;51.046;3.732;2022-12-20T15:51:43;26.67;;;16.63;;
23072;SDS011;34865;51.046;3.732;2022-12-20T15:54:30;22.73;;;16.90;;
23072;SDS011;34865;51.046;3.732;2022-12-20T15:56:59;24.87;;;16.13;;
23072;SDS011;34865;51.046;3.732;2022-12-20T15:59:27;26.33;;;16.53;;
23072;SDS011;34865;51.046;3.732;2022-12-20T16:01:53;27.10;;;14.93;;
23072;SDS011;34865;51.046;3.732;2022-12-20T16:04:19;28.40;;;16.33;;
23072;SDS011;34865;51.046;3.732;2022-12-20T16:06:47;29.83;;;17.20;;
23072;SDS011;34865;51.046;3.732;2022-12-20T16:09:14;20.20;;;15.57;;
23072;SDS011;34865;51.046;3.732;2022-12-20T16:11:41;23.90;;;16.30;;
23072;SDS011;34865;51.046;3.732;2022-12-20T16:14:09;29.60;;;17.93;;
23072;SDS011;34865;51.046;3.732;2022-12-20T16:16:39;28.60;;;17.33;;
23072;SDS011;34865;51.046;3.732;2022-12-20T16:19:04;28.23;;;16.70;;
23072;SDS011;34865;51.046;3.732;2022-12-20T16:21:31;22.83;;;16.60;;
23072;SDS011;34865;51.046;3.732;2022-12-20T16:23:58;28.83;;;17.83;;
23072;SDS011;34865;51.046;3.732;2022-12-20T16:26:25;26.53;;;18.03;;
23072;SDS011;34865;51.046;3.732;2022-12-20T16:28:52;25.40;;;18.33;;
23072;SDS011;34865;51.046;3.732;2022-12-20T16:31:22;31.43;;;20.57;;
23072;SDS011;34865;51.046;3.732;2022-12-20T16:33:59;30.50;;;17.83;;
23072;SDS011;34865;51.046;3.732;2022-12-20T16:36:29;32.53;;;18.10;;
23072;SDS011;34865;51.046;3.732;2022-12-20T16:38:55;26.37;;;17.47;;
23072;SDS011;34865;51.046;3.732;2022-12-20T16:41:27;31.43;;;19.37;;
23072;SDS011;34865;51.046;3.732;2022-12-20T16:43:56;30.33;;;18.80;;